sensor_id;sensor_type;location;lat;lon;timestamp;P1;durP1;ratioP1;P2;durP2;ratioP2
40058;SDS011;25763;49.972;8.568;2023-08-06T00:01:13;89.47;;;85.03;;
40058;SDS011;25763;49.972;8.568;2023-08-06T00:03:39;70.63;;;67.10;;
40058;SDS011;25763;49.972;8.568;2023-08-06T00:06:05;70.57;;;66.95;;
40058;SDS011;25763;49.972;8.568;2023-08-06T00:08:31;85.88;;;81.65;;
40058;SDS011;25763;49.972;8.568;2023-08-06T00:10:56;78.63;;;74.72;;
40058;SDS011;25763;49.972;8.568;2023-08-06T00:13:22;77.60;;;73.75;;
40058;SDS011;25763;49.972;8.568;2023-08-06T00:15:47;77.70;;;73.80;;
40058;SDS011;25763;49.972;8.568;2023-08-06T00:18:12;86.93;;;82.60;;
40058;SDS011;25763;49.972;8.568;2023-08-06T00:20:38;89.88;;;85.32;;
40058;SDS011;25763;49.972;8.568;2023-08-06T00:23:05;96.70;;;91.85;;
40058;SDS011;25763;49.972;8.568;2023-08-06T00:25:31;97.55;;;92.70;;
40058;SDS011;25763;49.972;8.568;2023-08-06T00:27:56;100.43;;;95.35;;
40058;SDS011;25763;49.972;8.568;2023-08-06T00:30:21;101.20;;;96.18;;
40058;SDS011;25763;49.972;8.568;2023-08-06T00:32:47;106.20;;;100.93;;
40058;SDS011;25763;49.972;8.568;2023-08-06T00:35:12;93.88;;;89.20;;
40058;SDS011;25763;49.972;8.568;2023-08-06T00:37:38;103.03;;;97.88;;
40058;SDS011;25763;49.972;8.568;2023-08-06T00:40:04;104.22;;;98.90;;
40058;SDS011;25763;49.972;8.568;2023-08-06T00:42:31;93.38;;;88.72;;
40058;SDS011;25763;49.972;8.568;2023-08-06T00:44:56;89.72;;;85.25;;
40058;SDS011;25763;49.972;8.568;2023-08-06T00:47:21;100.60;;;95.57;;
40058;SDS011;25763;49.972;8.568;2023-08-06T00:49:47;103.68;;;98.47;;
40058;SDS011;25763;49.972;8.568;2023-08-06T00:52:12;142.80;;;135.73;;
40058;SDS011;25763;49.972;8.568;2023-08-06T00:54:39;137.57;;;130.77;;
40058;SDS011;25763;49.972;8.568;2023-08-06T00:57:05;136.68;;;129.95;;
40058;SDS011;25763;49.972;8.568;2023-08-06T00:59:32;113.50;;;107.88;;
40058;SDS011;25763;49.972;8.568;2023-08-06T01:01:58;115.65;;;109.93;;
40058;SDS011;25763;49.972;8.568;2023-08-06T01:04:25;124.28;;;117.80;;
40058;SDS011;25763;49.972;8.568;2023-08-06T01:12:25;119.72;;;113.80;;
40058;SDS011;25763;49.972;8.568;2023-08-06T01:17:52;93.75;;;89.07;;
40058;SDS011;25763;49.972;8.568;2023-08-06T01:20:18;119.88;;;113.95;;
40058;SDS011;25763;49.972;8.568;2023-08-06T01:22:44;132.80;;;126.05;;
40058;SDS011;25763;49.972;8.568;2023-08-06T01:25:09;133.82;;;127.20;;
40058;SDS011;25763;49.972;8.568;2023-08-06T01:30:12;127.35;;;121.05;;
40058;SDS011;25763;49.972;8.568;2023-08-06T01:32:45;128.98;;;122.60;;
40058;SDS011;25763;49.972;8.568;2023-08-06T01:35:14;126.95;;;120.60;;
40058;SDS011;25763;49.972;8.568;2023-08-06T01:37:41;118.43;;;112.53;;
40058;SDS011;25763;49.972;8.568;2023-08-06T01:40:13;94.55;;;89.85;;
40058;SDS011;25763;49.972;8.568;2023-08-06T01:42:39;111.45;;;105.85;;
40058;SDS011;25763;49.972;8.568;2023-08-06T01:45:05;97.20;;;92.35;;
40058;SDS011;25763;49.972;8.568;2023-08-06T01:47:32;88.90;;;84.50;;
40058;SDS011;25763;49.972;8.568;2023-08-06T01:49:57;108.32;;;102.93;;
40058;SDS011;25763;49.972;8.568;2023-08-06T01:52:22;93.20;;;88.57;;
40058;SDS011;25763;49.972;8.568;2023-08-06T01:54:48;83.20;;;79.07;;
40058;SDS011;25763;49.972;8.568;2023-08-06T01:57:13;84.32;;;80.00;;
40058;SDS011;25763;49.972;8.568;2023-08-06T01:59:38;75.13;;;71.32;;
40058;SDS011;25763;49.972;8.568;2023-08-06T02:02:04;73.97;;;70.25;;
40058;SDS011;25763;49.972;8.568;2023-08-06T02:04:29;63.20;;;60.05;;
40058;SDS011;25763;49.972;8.568;2023-08-06T02:06:55;69.55;;;65.88;;
40058;SDS011;25763;49.972;8.568;2023-08-06T02:09:20;71.43;;;67.20;;
40058;SDS011;25763;49.972;8.568;2023-08-06T02:11:45;60.03;;;57.00;;
40058;SDS011;25763;49.972;8.568;2023-08-06T02:14:11;57.50;;;54.58;;
40058;SDS011;25763;49.972;8.568;2023-08-06T02:16:37;67.28;;;63.75;;
40058;SDS011;25763;49.972;8.568;2023-08-06T02:19:02;64.40;;;61.17;;
40058;SDS011;25763;49.972;8.568;2023-08-06T02:21:28;46.72;;;44.38;;
40058;SDS011;25763;49.972;8.568;2023-08-06T02:23:53;42.85;;;40.65;;
40058;SDS011;25763;49.972;8.568;2023-08-06T02:26:19;52.95;;;50.15;;
40058;SDS011;25763;49.972;8.568;2023-08-06T02:28:44;33.55;;;31.80;;
40058;SDS011;25763;49.972;8.568;2023-08-06T02:31:09;48.03;;;45.58;;
40058;SDS011;25763;49.972;8.568;2023-08-06T02:33:35;52.72;;;50.08;;
40058;SDS011;25763;49.972;8.568;2023-08-06T02:36:03;40.85;;;38.75;;
40058;SDS011;25763;49.972;8.568;2023-08-06T02:38:29;44.00;;;41.75;;
40058;SDS011;25763;49.972;8.568;2023-08-06T02:40:55;38.75;;;36.25;;
40058;SDS011;25763;49.972;8.568;2023-08-06T02:43:21;31.20;;;29.58;;
40058;SDS011;25763;49.972;8.568;2023-08-06T02:45:46;24.08;;;22.77;;
40058;SDS011;25763;49.972;8.568;2023-08-06T02:48:11;38.63;;;36.63;;
40058;SDS011;25763;49.972;8.568;2023-08-06T02:50:37;38.95;;;36.92;;
40058;SDS011;25763;49.972;8.568;2023-08-06T02:53:06;53.85;;;50.90;;
40058;SDS011;25763;49.972;8.568;2023-08-06T02:55:33;46.38;;;44.03;;
40058;SDS011;25763;49.972;8.568;2023-08-06T02:57:59;55.35;;;52.55;;
40058;SDS011;25763;49.972;8.568;2023-08-06T03:00:25;72.75;;;69.00;;
40058;SDS011;25763;49.972;8.568;2023-08-06T03:02:51;79.30;;;75.35;;
40058;SDS011;25763;49.972;8.568;2023-08-06T03:05:17;80.97;;;76.93;;
40058;SDS011;25763;49.972;8.568;2023-08-06T03:07:43;56.50;;;53.65;;
40058;SDS011;25763;49.972;8.568;2023-08-06T03:10:08;53.83;;;51.08;;
40058;SDS011;25763;49.972;8.568;2023-08-06T03:12:34;55.22;;;52.42;;
40058;SDS011;25763;49.972;8.568;2023-08-06T03:14:59;56.28;;;53.42;;
40058;SDS011;25763;49.972;8.568;2023-08-06T03:17:25;47.70;;;45.28;;
40058;SDS011;25763;49.972;8.568;2023-08-06T03:19:50;50.15;;;47.60;;
40058;SDS011;25763;49.972;8.568;2023-08-06T03:22:15;55.25;;;52.47;;
40058;SDS011;25763;49.972;8.568;2023-08-06T03:24:41;45.35;;;42.95;;
40058;SDS011;25763;49.972;8.568;2023-08-06T03:27:06;30.65;;;29.05;;
40058;SDS011;25763;49.972;8.568;2023-08-06T03:29:31;35.55;;;32.22;;
40058;SDS011;25763;49.972;8.568;2023-08-06T03:31:57;31.10;;;29.48;;
40058;SDS011;25763;49.972;8.568;2023-08-06T03:34:25;36.65;;;34.58;;
40058;SDS011;25763;49.972;8.568;2023-08-06T03:36:50;29.45;;;27.90;;
40058;SDS011;25763;49.972;8.568;2023-08-06T03:39:16;31.23;;;29.58;;
40058;SDS011;25763;49.972;8.568;2023-08-06T03:41:41;34.17;;;32.38;;
40058;SDS011;25763;49.972;8.568;2023-08-06T03:44:06;66.00;;;62.65;;
40058;SDS011;25763;49.972;8.568;2023-08-06T03:46:32;119.78;;;113.82;;
40058;SDS011;25763;49.972;8.568;2023-08-06T03:49:00;111.60;;;106.05;;
40058;SDS011;25763;49.972;8.568;2023-08-06T03:51:25;117.88;;;111.72;;
40058;SDS011;25763;49.972;8.568;2023-08-06T03:53:51;120.82;;;114.82;;
40058;SDS011;25763;49.972;8.568;2023-08-06T03:56:17;106.88;;;101.43;;
40058;SDS011;25763;49.972;8.568;2023-08-06T03:58:42;71.22;;;67.68;;
40058;SDS011;25763;49.972;8.568;2023-08-06T04:01:07;54.78;;;51.90;;
40058;SDS011;25763;49.972;8.568;2023-08-06T04:03:33;38.38;;;36.38;;
40058;SDS011;25763;49.972;8.568;2023-08-06T04:05:59;53.10;;;50.25;;
40058;SDS011;25763;49.972;8.568;2023-08-06T04:08:24;47.85;;;45.35;;
40058;SDS011;25763;49.972;8.568;2023-08-06T04:10:51;48.60;;;46.15;;
40058;SDS011;25763;49.972;8.568;2023-08-06T04:13:17;52.45;;;49.70;;
40058;SDS011;25763;49.972;8.568;2023-08-06T04:15:42;56.85;;;53.95;;
40058;SDS011;25763;49.972;8.568;2023-08-06T04:18:08;57.38;;;54.42;;
40058;SDS011;25763;49.972;8.568;2023-08-06T04:20:33;57.25;;;54.40;;
40058;SDS011;25763;49.972;8.568;2023-08-06T04:22:58;57.22;;;54.35;;
40058;SDS011;25763;49.972;8.568;2023-08-06T04:25:24;71.70;;;68.05;;
40058;SDS011;25763;49.972;8.568;2023-08-06T04:27:50;86.93;;;82.43;;
40058;SDS011;25763;49.972;8.568;2023-08-06T04:30:15;76.20;;;72.40;;
40058;SDS011;25763;49.972;8.568;2023-08-06T04:32:40;78.70;;;74.78;;
40058;SDS011;25763;49.972;8.568;2023-08-06T04:35:06;85.63;;;81.30;;
40058;SDS011;25763;49.972;8.568;2023-08-06T04:37:31;92.55;;;87.95;;
40058;SDS011;25763;49.972;8.568;2023-08-06T04:39:57;93.07;;;88.47;;
40058;SDS011;25763;49.972;8.568;2023-08-06T04:42:22;95.90;;;91.13;;
40058;SDS011;25763;49.972;8.568;2023-08-06T04:44:47;114.95;;;109.28;;
40058;SDS011;25763;49.972;8.568;2023-08-06T04:47:13;112.53;;;106.95;;
40058;SDS011;25763;49.972;8.568;2023-08-06T04:49:38;110.65;;;105.05;;
40058;SDS011;25763;49.972;8.568;2023-08-06T04:52:03;95.55;;;90.82;;
40058;SDS011;25763;49.972;8.568;2023-08-06T04:54:29;111.25;;;105.65;;
40058;SDS011;25763;49.972;8.568;2023-08-06T04:56:54;110.53;;;104.60;;
40058;SDS011;25763;49.972;8.568;2023-08-06T04:59:20;115.60;;;109.75;;
40058;SDS011;25763;49.972;8.568;2023-08-06T05:01:45;110.60;;;105.13;;
40058;SDS011;25763;49.972;8.568;2023-08-06T05:04:10;106.22;;;100.97;;
40058;SDS011;25763;49.972;8.568;2023-08-06T05:06:36;104.70;;;99.50;;
40058;SDS011;25763;49.972;8.568;2023-08-06T05:09:03;108.82;;;103.45;;
40058;SDS011;25763;49.972;8.568;2023-08-06T05:11:29;115.80;;;110.05;;
40058;SDS011;25763;49.972;8.568;2023-08-06T05:13:55;117.15;;;111.35;;
40058;SDS011;25763;49.972;8.568;2023-08-06T05:16:20;123.30;;;117.13;;
40058;SDS011;25763;49.972;8.568;2023-08-06T05:18:46;109.15;;;103.75;;
40058;SDS011;25763;49.972;8.568;2023-08-06T05:21:11;117.32;;;111.55;;
40058;SDS011;25763;49.972;8.568;2023-08-06T05:23:36;119.13;;;113.22;;
40058;SDS011;25763;49.972;8.568;2023-08-06T05:26:02;122.85;;;116.75;;
40058;SDS011;25763;49.972;8.568;2023-08-06T05:28:27;100.38;;;95.40;;
40058;SDS011;25763;49.972;8.568;2023-08-06T05:30:53;104.95;;;99.72;;
40058;SDS011;25763;49.972;8.568;2023-08-06T05:33:18;97.90;;;93.05;;
40058;SDS011;25763;49.972;8.568;2023-08-06T05:35:44;91.07;;;86.57;;
40058;SDS011;25763;49.972;8.568;2023-08-06T05:38:09;93.15;;;88.47;;
40058;SDS011;25763;49.972;8.568;2023-08-06T05:40:34;100.68;;;95.72;;
40058;SDS011;25763;49.972;8.568;2023-08-06T05:43:00;85.70;;;81.45;;
40058;SDS011;25763;49.972;8.568;2023-08-06T05:45:25;92.45;;;87.82;;
40058;SDS011;25763;49.972;8.568;2023-08-06T05:47:51;84.25;;;80.05;;
40058;SDS011;25763;49.972;8.568;2023-08-06T05:50:16;89.80;;;85.35;;
40058;SDS011;25763;49.972;8.568;2023-08-06T05:52:41;74.57;;;70.88;;
40058;SDS011;25763;49.972;8.568;2023-08-06T05:55:07;76.20;;;72.45;;
40058;SDS011;25763;49.972;8.568;2023-08-06T05:57:33;79.05;;;75.13;;
40058;SDS011;25763;49.972;8.568;2023-08-06T05:59:58;84.82;;;80.63;;
40058;SDS011;25763;49.972;8.568;2023-08-06T06:02:23;82.30;;;78.22;;
40058;SDS011;25763;49.972;8.568;2023-08-06T06:04:49;87.40;;;83.05;;
40058;SDS011;25763;49.972;8.568;2023-08-06T06:07:14;86.22;;;81.95;;
40058;SDS011;25763;49.972;8.568;2023-08-06T06:09:39;74.35;;;70.68;;
40058;SDS011;25763;49.972;8.568;2023-08-06T06:12:06;79.75;;;75.80;;
40058;SDS011;25763;49.972;8.568;2023-08-06T06:14:31;88.65;;;84.25;;
40058;SDS011;25763;49.972;8.568;2023-08-06T06:16:57;83.20;;;79.10;;
40058;SDS011;25763;49.972;8.568;2023-08-06T06:19:25;76.18;;;72.38;;
40058;SDS011;25763;49.972;8.568;2023-08-06T06:21:50;86.82;;;82.53;;
40058;SDS011;25763;49.972;8.568;2023-08-06T06:24:18;78.68;;;74.78;;
40058;SDS011;25763;49.972;8.568;2023-08-06T06:26:43;84.63;;;80.43;;
40058;SDS011;25763;49.972;8.568;2023-08-06T06:29:09;73.82;;;70.15;;
40058;SDS011;25763;49.972;8.568;2023-08-06T06:31:34;83.50;;;79.38;;
40058;SDS011;25763;49.972;8.568;2023-08-06T06:33:59;74.13;;;70.45;;
40058;SDS011;25763;49.972;8.568;2023-08-06T06:36:25;78.35;;;74.50;;
40058;SDS011;25763;49.972;8.568;2023-08-06T06:38:51;81.18;;;77.13;;
40058;SDS011;25763;49.972;8.568;2023-08-06T06:41:16;76.90;;;73.05;;
40058;SDS011;25763;49.972;8.568;2023-08-06T06:43:41;76.38;;;72.60;;
40058;SDS011;25763;49.972;8.568;2023-08-06T06:46:07;81.55;;;77.50;;
40058;SDS011;25763;49.972;8.568;2023-08-06T06:48:32;68.10;;;64.72;;
40058;SDS011;25763;49.972;8.568;2023-08-06T06:50:58;65.53;;;62.28;;
40058;SDS011;25763;49.972;8.568;2023-08-06T06:53:24;79.15;;;75.20;;
40058;SDS011;25763;49.972;8.568;2023-08-06T06:55:55;77.35;;;73.53;;
40058;SDS011;25763;49.972;8.568;2023-08-06T06:58:21;83.97;;;79.78;;
40058;SDS011;25763;49.972;8.568;2023-08-06T07:00:47;75.63;;;71.88;;
40058;SDS011;25763;49.972;8.568;2023-08-06T07:03:14;76.45;;;72.65;;
40058;SDS011;25763;49.972;8.568;2023-08-06T07:05:40;85.07;;;80.80;;
40058;SDS011;25763;49.972;8.568;2023-08-06T07:08:05;87.93;;;83.60;;
40058;SDS011;25763;49.972;8.568;2023-08-06T07:10:30;78.07;;;74.22;;
40058;SDS011;25763;49.972;8.568;2023-08-06T07:12:56;76.03;;;72.25;;
40058;SDS011;25763;49.972;8.568;2023-08-06T07:15:21;77.20;;;73.35;;
40058;SDS011;25763;49.972;8.568;2023-08-06T07:17:47;70.13;;;66.65;;
40058;SDS011;25763;49.972;8.568;2023-08-06T07:20:12;75.45;;;71.72;;
40058;SDS011;25763;49.972;8.568;2023-08-06T07:22:37;75.10;;;71.35;;
40058;SDS011;25763;49.972;8.568;2023-08-06T07:25:03;61.22;;;58.05;;
40058;SDS011;25763;49.972;8.568;2023-08-06T07:27:29;63.83;;;60.63;;
40058;SDS011;25763;49.972;8.568;2023-08-06T07:29:54;74.78;;;71.07;;
40058;SDS011;25763;49.972;8.568;2023-08-06T07:32:19;77.78;;;73.90;;
40058;SDS011;25763;49.972;8.568;2023-08-06T07:34:45;66.47;;;63.15;;
40058;SDS011;25763;49.972;8.568;2023-08-06T07:37:10;68.40;;;64.97;;
40058;SDS011;25763;49.972;8.568;2023-08-06T07:39:35;84.63;;;80.45;;
40058;SDS011;25763;49.972;8.568;2023-08-06T07:42:03;64.20;;;60.97;;
40058;SDS011;25763;49.972;8.568;2023-08-06T07:44:30;70.03;;;66.57;;
40058;SDS011;25763;49.972;8.568;2023-08-06T07:46:56;75.82;;;71.88;;
40058;SDS011;25763;49.972;8.568;2023-08-06T07:49:21;74.43;;;70.78;;
40058;SDS011;25763;49.972;8.568;2023-08-06T07:51:47;72.15;;;68.55;;
40058;SDS011;25763;49.972;8.568;2023-08-06T07:54:12;71.88;;;68.32;;
40058;SDS011;25763;49.972;8.568;2023-08-06T07:56:37;66.68;;;63.33;;
40058;SDS011;25763;49.972;8.568;2023-08-06T07:59:03;70.13;;;66.63;;
40058;SDS011;25763;49.972;8.568;2023-08-06T08:01:28;75.85;;;72.07;;
40058;SDS011;25763;49.972;8.568;2023-08-06T08:03:54;82.40;;;78.32;;
40058;SDS011;25763;49.972;8.568;2023-08-06T08:06:19;82.65;;;78.53;;
40058;SDS011;25763;49.972;8.568;2023-08-06T08:08:44;77.03;;;73.22;;
40058;SDS011;25763;49.972;8.568;2023-08-06T08:11:10;89.20;;;84.80;;
40058;SDS011;25763;49.972;8.568;2023-08-06T08:13:35;94.38;;;89.72;;
40058;SDS011;25763;49.972;8.568;2023-08-06T08:16:01;98.53;;;93.63;;
40058;SDS011;25763;49.972;8.568;2023-08-06T08:18:26;72.15;;;68.53;;
40058;SDS011;25763;49.972;8.568;2023-08-06T08:20:52;83.78;;;79.63;;
40058;SDS011;25763;49.972;8.568;2023-08-06T08:23:18;60.50;;;57.47;;
40058;SDS011;25763;49.972;8.568;2023-08-06T08:25:43;78.15;;;74.25;;
40058;SDS011;25763;49.972;8.568;2023-08-06T08:28:09;72.05;;;68.45;;
40058;SDS011;25763;49.972;8.568;2023-08-06T08:30:34;57.15;;;54.28;;
40058;SDS011;25763;49.972;8.568;2023-08-06T08:32:59;39.60;;;37.60;;
40058;SDS011;25763;49.972;8.568;2023-08-06T08:35:25;53.38;;;50.67;;
40058;SDS011;25763;49.972;8.568;2023-08-06T08:37:50;54.72;;;51.95;;
40058;SDS011;25763;49.972;8.568;2023-08-06T08:40:16;53.30;;;50.63;;
40058;SDS011;25763;49.972;8.568;2023-08-06T08:42:42;45.42;;;43.10;;
40058;SDS011;25763;49.972;8.568;2023-08-06T08:45:14;79.78;;;75.78;;
40058;SDS011;25763;49.972;8.568;2023-08-06T08:47:43;71.07;;;67.50;;
40058;SDS011;25763;49.972;8.568;2023-08-06T08:50:09;84.35;;;80.18;;
40058;SDS011;25763;49.972;8.568;2023-08-06T08:52:39;64.53;;;61.33;;
40058;SDS011;25763;49.972;8.568;2023-08-06T08:55:08;23.95;;;22.65;;
40058;SDS011;25763;49.972;8.568;2023-08-06T08:57:33;18.63;;;17.60;;
40058;SDS011;25763;49.972;8.568;2023-08-06T09:00:02;17.92;;;16.92;;
40058;SDS011;25763;49.972;8.568;2023-08-06T09:02:28;20.15;;;19.05;;
40058;SDS011;25763;49.972;8.568;2023-08-06T09:04:57;17.38;;;16.42;;
40058;SDS011;25763;49.972;8.568;2023-08-06T09:07:26;26.40;;;25.00;;
40058;SDS011;25763;49.972;8.568;2023-08-06T09:09:52;32.13;;;30.35;;
40058;SDS011;25763;49.972;8.568;2023-08-06T09:12:19;25.45;;;24.10;;
40058;SDS011;25763;49.972;8.568;2023-08-06T09:14:44;17.77;;;16.77;;
40058;SDS011;25763;49.972;8.568;2023-08-06T09:17:10;17.33;;;16.38;;
40058;SDS011;25763;49.972;8.568;2023-08-06T09:19:41;16.45;;;15.55;;
40058;SDS011;25763;49.972;8.568;2023-08-06T09:22:11;29.98;;;28.40;;
40058;SDS011;25763;49.972;8.568;2023-08-06T09:24:39;30.77;;;29.17;;
40058;SDS011;25763;49.972;8.568;2023-08-06T09:27:11;22.23;;;21.02;;
40058;SDS011;25763;49.972;8.568;2023-08-06T09:32:05;17.42;;;16.42;;
40058;SDS011;25763;49.972;8.568;2023-08-06T09:34:33;16.98;;;16.05;;
40058;SDS011;25763;49.972;8.568;2023-08-06T09:37:01;32.63;;;30.95;;
40058;SDS011;25763;49.972;8.568;2023-08-06T09:39:29;30.63;;;29.02;;
40058;SDS011;25763;49.972;8.568;2023-08-06T09:41:56;25.65;;;24.30;;
40058;SDS011;25763;49.972;8.568;2023-08-06T09:44:22;17.25;;;16.27;;
40058;SDS011;25763;49.972;8.568;2023-08-06T09:46:54;20.80;;;19.70;;
40058;SDS011;25763;49.972;8.568;2023-08-06T09:49:24;19.27;;;18.25;;
40058;SDS011;25763;49.972;8.568;2023-08-06T09:51:52;28.67;;;27.20;;
40058;SDS011;25763;49.972;8.568;2023-08-06T09:54:20;25.20;;;23.88;;
40058;SDS011;25763;49.972;8.568;2023-08-06T09:56:47;22.58;;;21.38;;
40058;SDS011;25763;49.972;8.568;2023-08-06T09:59:13;24.20;;;22.90;;
40058;SDS011;25763;49.972;8.568;2023-08-06T10:01:41;16.40;;;15.50;;
40058;SDS011;25763;49.972;8.568;2023-08-06T10:04:06;20.15;;;19.05;;
40058;SDS011;25763;49.972;8.568;2023-08-06T10:06:41;15.18;;;14.32;;
40058;SDS011;25763;49.972;8.568;2023-08-06T10:09:07;17.73;;;16.75;;
40058;SDS011;25763;49.972;8.568;2023-08-06T10:11:33;15.75;;;14.85;;
40058;SDS011;25763;49.972;8.568;2023-08-06T10:14:35;18.83;;;17.80;;
40058;SDS011;25763;49.972;8.568;2023-08-06T10:16:56;18.33;;;17.33;;
40058;SDS011;25763;49.972;8.568;2023-08-06T10:19:23;22.23;;;20.92;;
40058;SDS011;25763;49.972;8.568;2023-08-06T10:24:59;24.05;;;22.77;;
40058;SDS011;25763;49.972;8.568;2023-08-06T10:27:35;23.52;;;22.27;;
40058;SDS011;25763;49.972;8.568;2023-08-06T10:32:53;32.30;;;30.63;;
40058;SDS011;25763;49.972;8.568;2023-08-06T10:38:11;36.05;;;34.20;;
40058;SDS011;25763;49.972;8.568;2023-08-06T10:40:41;47.92;;;45.50;;
40058;SDS011;25763;49.972;8.568;2023-08-06T10:45:58;39.53;;;37.53;;
40058;SDS011;25763;49.972;8.568;2023-08-06T10:48:32;39.60;;;37.60;;
40058;SDS011;25763;49.972;8.568;2023-08-06T10:51:00;22.88;;;21.67;;
40058;SDS011;25763;49.972;8.568;2023-08-06T10:53:26;24.63;;;23.33;;
40058;SDS011;25763;49.972;8.568;2023-08-06T10:55:52;44.95;;;42.67;;
40058;SDS011;25763;49.972;8.568;2023-08-06T10:58:17;48.17;;;45.72;;
40058;SDS011;25763;49.972;8.568;2023-08-06T11:00:42;48.30;;;45.88;;
40058;SDS011;25763;49.972;8.568;2023-08-06T11:03:08;51.13;;;48.53;;
40058;SDS011;25763;49.972;8.568;2023-08-06T11:05:33;25.20;;;23.90;;
40058;SDS011;25763;49.972;8.568;2023-08-06T11:08:00;45.05;;;42.80;;
40058;SDS011;25763;49.972;8.568;2023-08-06T11:10:25;50.55;;;48.00;;
40058;SDS011;25763;49.972;8.568;2023-08-06T11:12:51;39.28;;;37.28;;
40058;SDS011;25763;49.972;8.568;2023-08-06T11:15:16;45.45;;;43.15;;
40058;SDS011;25763;49.972;8.568;2023-08-06T11:17:42;38.53;;;36.58;;
40058;SDS011;25763;49.972;8.568;2023-08-06T11:20:07;36.63;;;34.78;;
40058;SDS011;25763;49.972;8.568;2023-08-06T11:22:33;34.40;;;32.63;;
40058;SDS011;25763;49.972;8.568;2023-08-06T11:25:01;36.33;;;34.47;;
40058;SDS011;25763;49.972;8.568;2023-08-06T11:27:27;46.88;;;44.50;;
40058;SDS011;25763;49.972;8.568;2023-08-06T11:29:54;37.40;;;35.47;;
40058;SDS011;25763;49.972;8.568;2023-08-06T11:32:22;37.95;;;36.00;;
40058;SDS011;25763;49.972;8.568;2023-08-06T11:34:47;31.90;;;30.27;;
40058;SDS011;25763;49.972;8.568;2023-08-06T11:37:13;33.03;;;31.33;;
40058;SDS011;25763;49.972;8.568;2023-08-06T11:39:39;30.52;;;28.92;;
40058;SDS011;25763;49.972;8.568;2023-08-06T11:42:11;20.63;;;19.52;;
40058;SDS011;25763;49.972;8.568;2023-08-06T11:44:37;22.85;;;21.63;;
40058;SDS011;25763;49.972;8.568;2023-08-06T11:47:03;18.58;;;17.58;;
40058;SDS011;25763;49.972;8.568;2023-08-06T11:49:37;17.98;;;17.00;;
40058;SDS011;25763;49.972;8.568;2023-08-06T11:52:22;14.05;;;13.25;;
40058;SDS011;25763;49.972;8.568;2023-08-06T11:55:02;17.10;;;12.38;;
40058;SDS011;25763;49.972;8.568;2023-08-06T11:57:32;12.55;;;11.85;;
40058;SDS011;25763;49.972;8.568;2023-08-06T12:00:06;21.23;;;20.08;;
40058;SDS011;25763;49.972;8.568;2023-08-06T12:02:34;50.05;;;47.53;;
40058;SDS011;25763;49.972;8.568;2023-08-06T12:05:03;28.40;;;26.92;;
40058;SDS011;25763;49.972;8.568;2023-08-06T12:07:56;36.85;;;35.00;;
40058;SDS011;25763;49.972;8.568;2023-08-06T12:10:21;38.03;;;36.08;;
40058;SDS011;25763;49.972;8.568;2023-08-06T12:12:48;33.72;;;31.98;;
40058;SDS011;25763;49.972;8.568;2023-08-06T12:15:15;75.35;;;71.55;;
40058;SDS011;25763;49.972;8.568;2023-08-06T12:17:41;28.83;;;27.33;;
40058;SDS011;25763;49.972;8.568;2023-08-06T12:20:06;36.92;;;35.03;;
40058;SDS011;25763;49.972;8.568;2023-08-06T12:22:33;37.42;;;35.50;;
40058;SDS011;25763;49.972;8.568;2023-08-06T12:25:05;53.13;;;50.45;;
40058;SDS011;25763;49.972;8.568;2023-08-06T12:27:36;49.80;;;47.30;;
40058;SDS011;25763;49.972;8.568;2023-08-06T12:30:03;40.40;;;38.30;;
40058;SDS011;25763;49.972;8.568;2023-08-06T12:32:29;72.05;;;68.43;;
40058;SDS011;25763;49.972;8.568;2023-08-06T12:34:55;50.65;;;48.10;;
40058;SDS011;25763;49.972;8.568;2023-08-06T12:37:20;44.10;;;41.85;;
40058;SDS011;25763;49.972;8.568;2023-08-06T12:39:45;40.50;;;38.42;;
40058;SDS011;25763;49.972;8.568;2023-08-06T12:42:11;70.03;;;66.55;;
40058;SDS011;25763;49.972;8.568;2023-08-06T12:44:36;83.93;;;79.75;;
40058;SDS011;25763;49.972;8.568;2023-08-06T12:47:02;32.00;;;30.35;;
40058;SDS011;25763;49.972;8.568;2023-08-06T12:49:27;26.38;;;24.98;;
40058;SDS011;25763;49.972;8.568;2023-08-06T12:51:54;39.65;;;37.63;;
40058;SDS011;25763;49.972;8.568;2023-08-06T12:54:20;23.50;;;22.25;;
40058;SDS011;25763;49.972;8.568;2023-08-06T12:56:46;19.98;;;18.88;;
40058;SDS011;25763;49.972;8.568;2023-08-06T12:59:13;19.85;;;18.77;;
40058;SDS011;25763;49.972;8.568;2023-08-06T13:01:40;22.80;;;21.58;;
40058;SDS011;25763;49.972;8.568;2023-08-06T13:04:09;25.50;;;24.15;;
40058;SDS011;25763;49.972;8.568;2023-08-06T13:06:35;18.88;;;17.85;;
40058;SDS011;25763;49.972;8.568;2023-08-06T13:09:05;18.35;;;17.35;;
40058;SDS011;25763;49.972;8.568;2023-08-06T13:11:32;20.95;;;19.83;;
40058;SDS011;25763;49.972;8.568;2023-08-06T13:14:03;16.98;;;16.05;;
40058;SDS011;25763;49.972;8.568;2023-08-06T13:16:29;13.20;;;12.40;;
40058;SDS011;25763;49.972;8.568;2023-08-06T13:18:54;20.27;;;19.17;;
40058;SDS011;25763;49.972;8.568;2023-08-06T13:21:20;38.58;;;36.60;;
40058;SDS011;25763;49.972;8.568;2023-08-06T13:23:45;20.33;;;19.23;;
40058;SDS011;25763;49.972;8.568;2023-08-06T13:26:11;42.58;;;40.42;;
40058;SDS011;25763;49.972;8.568;2023-08-06T13:28:36;29.23;;;27.70;;
40058;SDS011;25763;49.972;8.568;2023-08-06T13:31:01;24.02;;;22.75;;
40058;SDS011;25763;49.972;8.568;2023-08-06T13:33:27;23.70;;;22.45;;
40058;SDS011;25763;49.972;8.568;2023-08-06T13:35:52;28.25;;;26.77;;
40058;SDS011;25763;49.972;8.568;2023-08-06T13:38:17;30.15;;;28.48;;
40058;SDS011;25763;49.972;8.568;2023-08-06T13:40:43;41.17;;;39.08;;
40058;SDS011;25763;49.972;8.568;2023-08-06T13:43:09;67.15;;;63.80;;
40058;SDS011;25763;49.972;8.568;2023-08-06T13:45:34;46.97;;;44.60;;
40058;SDS011;25763;49.972;8.568;2023-08-06T13:48:00;28.52;;;27.00;;
40058;SDS011;25763;49.972;8.568;2023-08-06T13:50:26;50.55;;;48.00;;
40058;SDS011;25763;49.972;8.568;2023-08-06T13:52:52;41.75;;;39.60;;
40058;SDS011;25763;49.972;8.568;2023-08-06T13:55:19;34.83;;;33.05;;
40058;SDS011;25763;49.972;8.568;2023-08-06T13:57:44;24.20;;;22.90;;
40058;SDS011;25763;49.972;8.568;2023-08-06T14:00:10;32.17;;;30.48;;
40058;SDS011;25763;49.972;8.568;2023-08-06T14:02:36;38.97;;;37.00;;
40058;SDS011;25763;49.972;8.568;2023-08-06T14:05:01;33.63;;;31.85;;
40058;SDS011;25763;49.972;8.568;2023-08-06T14:07:26;39.10;;;37.10;;
40058;SDS011;25763;49.972;8.568;2023-08-06T14:09:52;38.88;;;36.88;;
40058;SDS011;25763;49.972;8.568;2023-08-06T14:12:17;33.05;;;31.33;;
40058;SDS011;25763;49.972;8.568;2023-08-06T14:14:43;31.67;;;30.02;;
40058;SDS011;25763;49.972;8.568;2023-08-06T14:17:08;37.75;;;35.80;;
40058;SDS011;25763;49.972;8.568;2023-08-06T14:19:34;28.95;;;27.45;;
40058;SDS011;25763;49.972;8.568;2023-08-06T14:21:59;27.65;;;26.20;;
40058;SDS011;25763;49.972;8.568;2023-08-06T14:24:25;34.00;;;32.25;;
40058;SDS011;25763;49.972;8.568;2023-08-06T14:26:50;28.42;;;26.95;;
40058;SDS011;25763;49.972;8.568;2023-08-06T14:29:16;36.13;;;34.28;;
40058;SDS011;25763;49.972;8.568;2023-08-06T14:31:42;24.55;;;23.25;;
40058;SDS011;25763;49.972;8.568;2023-08-06T14:34:07;22.70;;;21.50;;
40058;SDS011;25763;49.972;8.568;2023-08-06T14:36:33;29.73;;;28.20;;
40058;SDS011;25763;49.972;8.568;2023-08-06T14:38:58;28.00;;;26.52;;